Time;durP1;ratioP1;P1;durP2;ratioP2;P2;SDS_P1;SDS_P2;PMS_P1;PMS_P2;Temp;Humidity;BMP_temperature;BMP_pressure;BME280_temperature;BME280_humidity;BME280_pressure;Samples;Min_cycle;Max_cycle;Signal;HPM_P1;HPM_P2
2021/03/10 00:00:20;;;;;;;5.43;3.00;;;22.80;41.00;;;;;;5074449;28;20052;-45
2021/03/10 00:02:47;;;;;;;6.20;3.70;;;22.80;41.10;;;;;;5072388;28;20045;-41
2021/03/10 00:05:14;;;;;;;4.78;3.30;;;22.80;41.10;;;;;;5072471;28;20056;-42
2021/03/10 00:07:41;;;;;;;4.47;3.63;;;22.80;41.10;;;;;;5074455;28;20380;-42
2021/03/10 00:10:11;;;;;;;4.30;2.95;;;22.80;41.10;;;;;;5072877;28;20048;-44
2021/03/10 00:12:38;;;;;;;4.82;3.15;;;22.80;41.10;;;;;;5071785;28;20044;-43
2021/03/10 00:15:07;;;;;;;3.28;2.80;;;22.80;41.20;;;;;;5073465;28;20049;-41
2021/03/10 00:17:34;;;;;;;4.28;2.97;;;22.80;41.20;;;;;;5074590;28;20132;-41
2021/03/10 00:20:01;;;;;;;4.72;3.40;;;22.80;41.20;;;;;;5075659;28;20045;-42
2021/03/10 00:22:28;;;;;;;5.10;3.00;;;22.70;41.10;;;;;;5075324;28;20044;-42
2021/03/10 00:24:55;;;;;;;3.45;2.83;;;22.80;41.20;;;;;;5073838;28;20048;-40
2021/03/10 00:27:24;;;;;;;5.20;3.35;;;22.80;41.20;;;;;;5072636;28;20048;-42
2021/03/10 00:29:56;;;;;;;4.03;2.97;;;22.80;41.20;;;;;;5072808;28;20124;-42
2021/03/10 00:32:25;;;;;;;5.25;3.35;;;22.70;41.20;;;;;;5072700;28;20044;-42
2021/03/10 00:34:53;;;;;;;4.32;3.20;;;22.70;41.20;;;;;;5072543;28;20463;-42
2021/03/10 00:37:21;;;;;;;4.32;3.17;;;22.80;41.30;;;;;;5073238;28;20048;-43
2021/03/10 00:39:48;;;;;;;4.63;3.40;;;22.70;41.20;;;;;;5072347;28;20041;-51
2021/03/10 00:42:16;;;;;;;3.78;2.80;;;22.70;41.20;;;;;;5073959;28;20040;-44
2021/03/10 00:44:44;;;;;;;4.05;3.13;;;22.70;41.30;;;;;;5074704;28;20041;-47
2021/03/10 00:47:11;;;;;;;3.95;2.92;;;22.70;41.30;;;;;;5073387;28;20056;-49
2021/03/10 00:49:39;;;;;;;4.43;2.72;;;22.70;41.30;;;;;;5073478;28;20048;-50
2021/03/10 00:52:06;;;;;;;3.97;2.90;;;22.70;41.30;;;;;;5071952;28;20123;-45
2021/03/10 00:54:34;;;;;;;3.60;2.92;;;22.70;41.30;;;;;;5073369;28;20052;-45
2021/03/10 00:57:01;;;;;;;5.00;2.97;;;22.70;41.30;;;;;;5072112;28;20040;-47
2021/03/10 00:59:28;;;;;;;3.92;2.80;;;22.70;41.30;;;;;;5071309;28;20056;-42
2021/03/10 01:01:55;;;;;;;4.75;3.53;;;22.70;41.30;;;;;;5073187;28;20059;-42
2021/03/10 01:04:22;;;;;;;3.72;2.83;;;22.70;41.30;;;;;;5071495;28;20093;-44
2021/03/10 01:06:48;;;;;;;4.03;2.92;;;22.70;41.30;;;;;;5073153;28;20051;-43
2021/03/10 01:09:17;;;;;;;5.90;3.40;;;22.70;41.40;;;;;;5072686;28;20119;-41
2021/03/10 01:11:45;;;;;;;4.32;3.20;;;22.70;41.40;;;;;;5074069;28;20074;-42
2021/03/10 01:14:13;;;;;;;5.72;2.95;;;22.70;41.40;;;;;;5069751;28;20045;-41
2021/03/10 01:16:39;;;;;;;4.15;3.08;;;22.70;41.40;;;;;;5072846;28;20053;-42
2021/03/10 01:19:07;;;;;;;3.80;2.92;;;22.70;41.40;;;;;;5071486;28;20511;-41
2021/03/10 01:21:34;;;;;;;4.70;3.25;;;22.70;41.40;;;;;;5074119;28;20056;-41
2021/03/10 01:24:01;;;;;;;5.00;3.17;;;22.70;41.40;;;;;;5073706;28;20106;-41
2021/03/10 01:26:29;;;;;;;4.50;2.95;;;22.70;41.40;;;;;;5073004;28;20420;-41
2021/03/10 01:28:55;;;;;;;4.00;3.17;;;22.70;41.40;;;;;;5071568;28;20097;-41
2021/03/10 01:31:22;;;;;;;4.03;2.85;;;22.70;41.40;;;;;;5071144;28;20395;-43
2021/03/10 01:33:49;;;;;;;5.15;3.33;;;22.70;41.50;;;;;;5071188;28;20434;-41
2021/03/10 01:36:16;;;;;;;4.35;2.58;;;22.70;41.50;;;;;;5072906;28;20081;-42
2021/03/10 01:38:42;;;;;;;4.15;3.03;;;22.70;41.50;;;;;;5072399;28;20114;-41
2021/03/10 01:41:12;;;;;;;4.32;2.90;;;22.70;41.50;;;;;;5072728;28;20045;-41
2021/03/10 01:43:40;;;;;;;4.15;3.08;;;22.70;41.60;;;;;;5072200;28;20048;-41
2021/03/10 01:46:07;;;;;;;5.03;3.10;;;22.70;41.50;;;;;;5072482;28;20048;-41
2021/03/10 01:48:35;;;;;;;3.75;2.63;;;22.70;41.50;;;;;;5072172;28;20079;-43
2021/03/10 01:51:04;;;;;;;3.40;2.58;;;22.70;41.50;;;;;;5072286;28;20068;-42
2021/03/10 01:53:32;;;;;;;4.13;2.95;;;22.70;41.60;;;;;;5070823;28;20079;-43
2021/03/10 01:56:01;;;;;;;4.15;3.00;;;22.70;41.60;;;;;;5071499;28;20050;-42
2021/03/10 01:58:27;;;;;;;4.50;3.15;;;22.70;41.60;;;;;;5072342;28;20049;-44
2021/03/10 02:00:54;;;;;;;4.60;3.13;;;22.70;41.60;;;;;;5071671;28;20504;-43
2021/03/10 02:03:21;;;;;;;3.45;2.60;;;22.70;41.60;;;;;;5069549;28;20052;-42
2021/03/10 02:05:48;;;;;;;4.43;3.13;;;22.70;41.60;;;;;;5071853;28;20049;-41
2021/03/10 02:08:29;;;;;;;4.82;3.05;;;22.70;41.60;;;;;;5072239;28;20052;-44
2021/03/10 02:11:05;;;;;;;4.38;2.92;;;22.70;41.70;;;;;;5071609;28;20055;-42
2021/03/10 02:13:54;;;;;;;3.72;2.63;;;22.60;41.60;;;;;;5072057;28;20044;-42
2021/03/10 02:16:39;;;;;;;5.50;3.08;;;22.60;41.60;;;;;;5071557;28;20063;-43
2021/03/10 02:19:28;;;;;;;4.65;2.92;;;22.70;41.70;;;;;;5071941;28;20045;-43
2021/03/10 02:22:17;;;;;;;4.15;2.75;;;22.60;41.60;;;;;;5072674;28;20440;-42
2021/03/10 02:25:02;;;;;;;6.00;2.85;;;22.60;41.60;;;;;;5071646;28;20056;-45
2021/03/10 02:27:35;;;;;;;3.30;2.72;;;22.60;41.60;;;;;;5071179;28;20408;-42
2021/03/10 02:30:07;;;;;;;4.07;2.97;;;22.60;41.70;;;;;;5072660;28;20132;-41
2021/03/10 02:32:39;;;;;;;3.63;2.70;;;22.60;41.70;;;;;;5070457;28;20059;-41
2021/03/10 02:35:08;;;;;;;3.03;2.60;;;22.60;41.70;;;;;;5071960;28;20072;-41
2021/03/10 02:37:40;;;;;;;4.05;3.00;;;22.60;41.70;;;;;;5071084;28;20065;-42
2021/03/10 02:40:09;;;;;;;3.92;2.80;;;22.60;41.70;;;;;;5070656;28;20052;-41
2021/03/10 02:42:39;;;;;;;4.55;3.10;;;22.60;41.70;;;;;;5073220;28;20424;-41
2021/03/10 02:45:07;;;;;;;4.75;3.03;;;22.60;41.70;;;;;;5070012;28;20044;-41
2021/03/10 02:47:37;;;;;;;4.18;2.65;;;22.60;41.70;;;;;;5070169;28;20055;-41
2021/03/10 02:50:06;;;;;;;4.15;2.78;;;22.60;41.70;;;;;;5071520;28;20093;-42
2021/03/10 02:52:33;;;;;;;3.58;2.80;;;22.60;41.70;;;;;;5071833;28;20060;-41
2021/03/10 02:55:01;;;;;;;4.22;2.78;;;22.60;41.70;;;;;;5071563;28;20056;-41
2021/03/10 02:57:29;;;;;;;3.35;2.53;;;22.60;41.70;;;;;;5070080;28;20048;-42
2021/03/10 02:59:58;;;;;;;2.85;2.45;;;22.60;41.70;;;;;;5055622;28;20053;-41
2021/03/10 03:02:27;;;;;;;4.43;2.85;;;22.60;41.70;;;;;;5072702;28;20059;-41
2021/03/10 03:04:54;;;;;;;4.15;2.80;;;22.60;41.70;;;;;;5074394;28;20127;-41
2021/03/10 03:11:03;;;;;;;4.20;3.10;;;22.60;41.80;;;;;;5059269;28;20078;-41
2021/03/10 03:13:53;;;;;;;3.90;2.90;;;22.60;41.80;;;;;;5074129;28;20038;-43
2021/03/10 03:16:20;;;;;;;3.42;2.67;;;22.60;41.80;;;;;;5075128;28;20044;-42
2021/03/10 03:18:46;;;;;;;5.25;3.08;;;22.60;41.80;;;;;;5075152;28;20048;-41
2021/03/10 03:21:13;;;;;;;3.72;2.53;;;22.60;41.90;;;;;;5075301;28;20055;-41
2021/03/10 03:23:42;;;;;;;3.60;2.70;;;22.50;41.70;;;;;;5073918;28;20058;-41
2021/03/10 03:26:08;;;;;;;4.25;2.90;;;22.60;41.90;;;;;;5073520;28;20059;-41
2021/03/10 03:28:37;;;;;;;3.08;2.75;;;22.50;41.70;;;;;;5074647;28;20048;-42
2021/03/10 03:31:04;;;;;;;4.60;2.97;;;22.60;41.90;;;;;;5072432;28;20051;-41
2021/03/10 03:33:31;;;;;;;5.55;2.70;;;22.60;41.80;;;;;;5073231;28;20052;-41
2021/03/10 03:35:59;;;;;;;3.92;2.70;;;22.60;41.90;;;;;;5072199;28;20045;-41
2021/03/10 03:38:27;;;;;;;4.00;2.63;;;22.60;41.90;;;;;;5074325;28;20089;-41
2021/03/10 03:40:55;;;;;;;3.97;2.85;;;22.50;41.80;;;;;;5073817;28;20040;-42
2021/03/10 03:43:27;;;;;;;4.32;3.00;;;22.50;41.80;;;;;;5072333;28;20056;-41
2021/03/10 03:45:54;;;;;;;4.15;2.90;;;22.50;41.80;;;;;;5057623;28;20045;-42
2021/03/10 03:48:21;;;;;;;4.70;2.80;;;22.60;41.90;;;;;;5075451;28;20045;-43
2021/03/10 03:50:49;;;;;;;4.10;2.90;;;22.50;41.80;;;;;;5074110;28;20048;-41
2021/03/10 03:53:16;;;;;;;4.47;2.75;;;22.50;41.90;;;;;;5074152;28;20102;-46
2021/03/10 03:55:43;;;;;;;5.07;2.90;;;22.50;41.80;;;;;;5074437;28;20076;-41
2021/03/10 03:58:10;;;;;;;4.95;2.70;;;22.50;41.80;;;;;;5075678;28;20048;-47
2021/03/10 04:00:37;;;;;;;3.67;3.10;;;22.50;41.80;;;;;;5071497;28;20052;-46
2021/03/10 04:03:04;;;;;;;3.20;2.58;;;22.50;41.80;;;;;;5073362;28;20067;-45
2021/03/10 04:05:31;;;;;;;3.65;2.85;;;22.50;41.80;;;;;;5074125;28;20052;-42
2021/03/10 04:08:09;;;;;;;3.58;2.53;;;22.50;41.90;;;;;;5075353;28;20040;-43
2021/03/10 04:10:38;;;;;;;4.32;2.63;;;22.50;41.90;;;;;;5074261;28;20046;-45
2021/03/10 04:13:05;;;;;;;3.30;2.50;;;22.50;41.90;;;;;;5072083;28;20047;-45
2021/03/10 04:15:33;;;;;;;4.13;2.90;;;22.50;41.90;;;;;;5072676;28;20488;-43
2021/03/10 04:18:01;;;;;;;4.43;2.95;;;22.60;41.90;;;;;;5074231;28;20044;-47
2021/03/10 04:20:28;;;;;;;3.60;2.75;;;22.50;41.90;;;;;;5074000;28;20049;-45
2021/03/10 04:22:55;;;;;;;3.15;2.47;;;22.50;41.90;;;;;;5072378;28;20060;-40
2021/03/10 04:25:22;;;;;;;4.38;3.00;;;22.50;41.90;;;;;;5074065;28;20049;-44
2021/03/10 04:27:49;;;;;;;4.55;2.88;;;22.60;42.00;;;;;;5073838;28;20072;-46
2021/03/10 04:30:16;;;;;;;3.65;2.65;;;22.60;41.90;;;;;;5073247;28;20506;-42
2021/03/10 04:32:43;;;;;;;3.67;2.90;;;22.50;42.50;;;;;;5070955;28;20040;-47
2021/03/10 04:35:11;;;;;;;3.85;2.80;;;22.50;41.90;;;;;;5072322;28;20072;-47
2021/03/10 04:37:40;;;;;;;3.60;2.80;;;22.50;41.90;;;;;;5071969;28;20075;-46
2021/03/10 04:40:09;;;;;;;4.03;2.90;;;22.50;41.90;;;;;;5071399;28;20051;-42
2021/03/10 04:42:36;;;;;;;3.72;2.58;;;22.50;41.90;;;;;;5073482;28;20110;-42
2021/03/10 04:45:04;;;;;;;3.42;2.50;;;22.50;41.90;;;;;;5074561;28;20481;-44
2021/03/10 04:47:31;;;;;;;3.95;3.05;;;22.50;41.90;;;;;;5072788;28;20470;-42
2021/03/10 04:49:58;;;;;;;3.88;2.90;;;22.50;41.90;;;;;;5072560;28;20052;-41
2021/03/10 04:52:25;;;;;;;3.28;2.60;;;22.50;41.90;;;;;;5071950;28;20484;-43
2021/03/10 04:54:51;;;;;;;4.25;3.00;;;22.50;41.90;;;;;;5072253;28;20045;-41
2021/03/10 04:57:18;;;;;;;3.53;2.50;;;22.50;41.90;;;;;;5073301;28;20416;-45
2021/03/10 04:59:45;;;;;;;3.33;2.45;;;22.50;41.90;;;;;;5072878;28;20044;-42
2021/03/10 05:02:12;;;;;;;3.95;2.92;;;22.50;41.90;;;;;;5072960;28;20055;-42
2021/03/10 05:04:39;;;;;;;4.65;3.00;;;22.50;42.00;;;;;;5072707;28;20060;-41
2021/03/10 05:07:06;;;;;;;2.97;2.42;;;22.50;41.90;;;;;;5072986;28;20454;-42
2021/03/10 05:09:33;;;;;;;3.55;2.70;;;22.50;42.00;;;;;;5073233;28;20049;-42
2021/03/10 05:12:00;;;;;;;4.22;2.90;;;22.50;42.00;;;;;;5053230;28;20497;-41
2021/03/10 05:14:30;;;;;;;3.03;2.47;;;22.50;42.00;;;;;;5072158;28;20044;-44
2021/03/10 05:16:57;;;;;;;3.75;2.65;;;22.50;42.00;;;;;;5072571;28;20512;-41
2021/03/10 05:19:25;;;;;;;3.72;2.60;;;22.50;42.00;;;;;;5072388;28;20064;-41
2021/03/10 05:21:52;;;;;;;4.28;2.70;;;22.50;42.00;;;;;;5072742;28;20047;-44
2021/03/10 05:24:18;;;;;;;3.65;2.75;;;22.50;42.00;;;;;;5070482;28;20080;-42
2021/03/10 05:26:45;;;;;;;3.42;2.58;;;22.40;41.90;;;;;;5073005;28;20369;-42
2021/03/10 05:29:12;;;;;;;3.83;2.70;;;22.40;41.90;;;;;;5071069;28;20037;-43
2021/03/10 05:31:39;;;;;;;3.83;2.63;;;22.50;42.10;;;;;;5071821;28;20047;-44
2021/03/10 05:34:06;;;;;;;3.53;2.70;;;22.40;41.90;;;;;;5071181;28;20037;-42
2021/03/10 05:36:33;;;;;;;3.78;2.70;;;22.50;42.00;;;;;;5070975;28;20079;-42
2021/03/10 05:39:15;;;;;;;3.92;2.88;;;22.40;41.90;;;;;;5054035;28;20531;-43
2021/03/10 05:41:43;;;;;;;5.07;2.67;;;22.40;41.90;;;;;;5072948;28;20067;-42
2021/03/10 05:44:10;;;;;;;3.22;2.47;;;22.40;41.90;;;;;;5072676;28;20044;-42
2021/03/10 05:46:38;;;;;;;4.05;2.83;;;22.50;42.00;;;;;;5072282;28;20439;-43
2021/03/10 05:49:06;;;;;;;3.13;2.50;;;22.40;41.90;;;;;;5073360;28;20040;-44
2021/03/10 05:51:34;;;;;;;3.40;2.75;;;22.40;41.90;;;;;;5069602;28;20049;-41
2021/03/10 05:54:04;;;;;;;3.53;2.70;;;22.40;42.00;;;;;;5072209;28;20503;-43
2021/03/10 05:56:31;;;;;;;4.25;2.88;;;22.40;41.90;;;;;;5073632;28;20056;-42
2021/03/10 05:59:02;;;;;;;4.03;2.90;;;22.40;41.90;;;;;;5070937;28;20079;-45
2021/03/10 06:01:29;;;;;;;4.18;3.00;;;22.40;42.00;;;;;;5071566;28;20052;-46
2021/03/10 06:04:01;;;;;;;4.15;2.67;;;22.40;42.00;;;;;;5071923;28;20048;-42
2021/03/10 06:06:39;;;;;;;3.47;2.60;;;22.40;42.60;;;;;;5071273;28;20382;-45
2021/03/10 06:09:24;;;;;;;4.22;3.03;;;22.40;41.90;;;;;;5056390;28;20040;-42
2021/03/10 06:12:02;;;;;;;3.85;2.88;;;22.40;42.00;;;;;;5071147;28;20123;-42
2021/03/10 06:14:30;;;;;;;4.32;3.00;;;22.40;42.00;;;;;;5054876;28;20037;-41
2021/03/10 06:17:08;;;;;;;3.42;2.50;;;22.50;42.10;;;;;;5071995;28;20052;-42
2021/03/10 06:19:44;;;;;;;4.13;2.88;;;22.40;42.00;;;;;;5071088;28;20048;-41
2021/03/10 06:22:13;;;;;;;3.85;2.40;;;22.40;42.00;;;;;;5071171;28;20102;-42
2021/03/10 06:24:40;;;;;;;3.22;2.53;;;22.40;42.60;;;;;;5071727;28;20504;-41
2021/03/10 06:27:07;;;;;;;3.08;2.65;;;22.40;42.00;;;;;;5072287;28;20050;-41
2021/03/10 06:29:34;;;;;;;3.28;2.67;;;22.50;42.10;;;;;;5069936;28;20051;-41
2021/03/10 06:32:09;;;;;;;3.72;2.75;;;22.40;42.00;;;;;;5070266;28;20078;-41
2021/03/10 06:34:48;;;;;;;3.80;2.75;;;22.50;42.10;;;;;;5071985;28;20090;-40
2021/03/10 06:37:28;;;;;;;3.85;2.70;;;22.40;42.00;;;;;;5069992;28;20056;-41
2021/03/10 06:40:09;;;;;;;4.32;2.85;;;22.40;42.00;;;;;;5070143;28;20072;-42
2021/03/10 06:42:37;;;;;;;3.67;3.00;;;22.40;42.00;;;;;;5070010;28;20087;-42
2021/03/10 06:45:05;;;;;;;3.88;2.53;;;22.50;42.10;;;;;;5070379;28;20048;-41
2021/03/10 06:47:38;;;;;;;4.13;3.10;;;22.50;42.10;;;;;;5070330;28;20040;-43
2021/03/10 06:50:07;;;;;;;3.50;2.92;;;22.40;42.00;;;;;;5069383;28;20044;-41
2021/03/10 06:52:34;;;;;;;3.13;2.47;;;22.50;42.10;;;;;;5069344;28;20037;-42
2021/03/10 06:55:03;;;;;;;3.63;2.83;;;22.50;42.10;;;;;;5069987;28;20048;-41
2021/03/10 06:57:30;;;;;;;3.67;2.85;;;22.50;42.10;;;;;;5070636;28;20059;-41
2021/03/10 06:59:57;;;;;;;3.80;2.58;;;22.50;42.10;;;;;;5069195;28;20048;-42
